sensor_id;sensor_type;location;lat;lon;timestamp;pressure;altitude;pressure_sealevel;temperature;humidity
11912;BME280;6016;41.928;25.556;2023-07-31T00:01:13;98348.56;;;25.86;48.80
11912;BME280;6016;41.928;25.556;2023-07-31T00:03:40;98350.47;;;25.90;48.53
11912;BME280;6016;41.928;25.556;2023-07-31T00:06:06;98353.19;;;25.90;48.88
11912;BME280;6016;41.928;25.556;2023-07-31T00:08:33;98357.19;;;25.82;49.12
11912;BME280;6016;41.928;25.556;2023-07-31T00:11:00;98318.94;;;25.63;49.02
11912;BME280;6016;41.928;25.556;2023-07-31T00:13:27;98350.44;;;25.85;49.78
11912;BME280;6016;41.928;25.556;2023-07-31T00:15:55;98357.78;;;25.90;49.51
11912;BME280;6016;41.928;25.556;2023-07-31T00:18:22;98349.97;;;25.93;49.89
11912;BME280;6016;41.928;25.556;2023-07-31T00:20:49;98312.78;;;25.68;49.68
11912;BME280;6016;41.928;25.556;2023-07-31T00:23:16;98360.72;;;25.88;50.43
11912;BME280;6016;41.928;25.556;2023-07-31T00:25:42;98370.22;;;25.91;49.95
11912;BME280;6016;41.928;25.556;2023-07-31T00:28:10;98373.78;;;25.96;50.13
11912;BME280;6016;41.928;25.556;2023-07-31T00:30:37;98380.03;;;26.02;49.72
11912;BME280;6016;41.928;25.556;2023-07-31T00:33:05;98396.78;;;25.99;49.89
11912;BME280;6016;41.928;25.556;2023-07-31T00:35:32;98400.59;;;26.03;49.96
11912;BME280;6016;41.928;25.556;2023-07-31T00:37:59;98394.84;;;25.94;51.17
11912;BME280;6016;41.928;25.556;2023-07-31T00:40:26;98408.91;;;25.96;50.99
11912;BME280;6016;41.928;25.556;2023-07-31T00:42:52;98406.28;;;26.07;50.24
11912;BME280;6016;41.928;25.556;2023-07-31T00:45:19;98391.91;;;26.01;50.89
11912;BME280;6016;41.928;25.556;2023-07-31T00:47:48;98422.28;;;26.13;50.93
11912;BME280;6016;41.928;25.556;2023-07-31T00:50:16;98414.97;;;26.14;51.13
11912;BME280;6016;41.928;25.556;2023-07-31T00:52:44;98424.78;;;26.20;50.49
11912;BME280;6016;41.928;25.556;2023-07-31T00:55:11;98421.56;;;26.23;51.17
11912;BME280;6016;41.928;25.556;2023-07-31T00:57:38;98425.59;;;26.21;50.95
11912;BME280;6016;41.928;25.556;2023-07-31T01:00:08;98413.66;;;26.17;51.42
11912;BME280;6016;41.928;25.556;2023-07-31T01:02:35;98421.53;;;26.18;51.71
11912;BME280;6016;41.928;25.556;2023-07-31T01:05:03;98422.00;;;26.15;51.22
11912;BME280;6016;41.928;25.556;2023-07-31T01:07:37;98420.13;;;26.16;51.68
11912;BME280;6016;41.928;25.556;2023-07-31T01:10:09;98420.13;;;26.16;51.48
11912;BME280;6016;41.928;25.556;2023-07-31T01:12:38;98414.44;;;26.12;52.67
11912;BME280;6016;41.928;25.556;2023-07-31T01:15:06;98416.88;;;26.13;51.85
11912;BME280;6016;41.928;25.556;2023-07-31T01:17:36;98264.50;;;25.11;52.11
11912;BME280;6016;41.928;25.556;2023-07-31T01:20:05;98379.06;;;25.81;52.58
11912;BME280;6016;41.928;25.556;2023-07-31T01:28:19;98415.00;;;25.81;53.33
11912;BME280;6016;41.928;25.556;2023-07-31T01:30:48;98438.88;;;25.95;53.00
11912;BME280;6016;41.928;25.556;2023-07-31T01:33:15;98437.03;;;26.01;52.60
11912;BME280;6016;41.928;25.556;2023-07-31T01:35:45;98435.09;;;25.96;55.24
11912;BME280;6016;41.928;25.556;2023-07-31T01:38:13;98443.50;;;25.94;53.71
11912;BME280;6016;41.928;25.556;2023-07-31T01:40:41;98401.66;;;25.69;54.06
11912;BME280;6016;41.928;25.556;2023-07-31T01:43:08;98394.28;;;25.60;54.83
11912;BME280;6016;41.928;25.556;2023-07-31T01:45:37;98436.78;;;26.02;54.89
11912;BME280;6016;41.928;25.556;2023-07-31T01:48:04;98430.47;;;25.91;53.44
11912;BME280;6016;41.928;25.556;2023-07-31T01:50:30;98441.88;;;25.93;54.16
11912;BME280;6016;41.928;25.556;2023-07-31T01:52:57;98392.16;;;25.62;54.13
11912;BME280;6016;41.928;25.556;2023-07-31T01:55:24;98446.75;;;25.96;54.26
11912;BME280;6016;41.928;25.556;2023-07-31T01:57:51;98450.53;;;25.95;54.43
11912;BME280;6016;41.928;25.556;2023-07-31T02:00:18;98450.53;;;25.95;54.49
11912;BME280;6016;41.928;25.556;2023-07-31T02:02:47;98444.59;;;25.98;54.83
11912;BME280;6016;41.928;25.556;2023-07-31T02:05:13;98448.13;;;25.99;55.04
11912;BME280;6016;41.928;25.556;2023-07-31T02:07:41;98450.25;;;25.97;54.24
11912;BME280;6016;41.928;25.556;2023-07-31T02:10:08;98445.44;;;25.99;55.62
11912;BME280;6016;41.928;25.556;2023-07-31T02:12:34;98439.09;;;25.88;55.81
11912;BME280;6016;41.928;25.556;2023-07-31T02:15:01;98410.19;;;25.56;56.52
11912;BME280;6016;41.928;25.556;2023-07-31T02:17:28;98444.69;;;25.76;56.21
11912;BME280;6016;41.928;25.556;2023-07-31T02:19:56;98437.91;;;25.74;55.93
11912;BME280;6016;41.928;25.556;2023-07-31T02:22:23;98441.72;;;25.78;54.91
11912;BME280;6016;41.928;25.556;2023-07-31T02:24:50;98446.34;;;25.82;56.37
11912;BME280;6016;41.928;25.556;2023-07-31T02:27:16;98451.50;;;25.84;56.21
11912;BME280;6016;41.928;25.556;2023-07-31T02:29:44;98376.53;;;25.41;54.80
11912;BME280;6016;41.928;25.556;2023-07-31T02:32:10;98442.09;;;25.87;56.32
11912;BME280;6016;41.928;25.556;2023-07-31T02:34:37;98420.13;;;25.50;56.26
11912;BME280;6016;41.928;25.556;2023-07-31T02:37:06;98452.44;;;25.67;56.45
11912;BME280;6016;41.928;25.556;2023-07-31T02:39:32;98450.28;;;25.69;56.70
11912;BME280;6016;41.928;25.556;2023-07-31T02:41:59;98379.13;;;25.31;56.29
11912;BME280;6016;41.928;25.556;2023-07-31T02:44:27;98438.72;;;25.74;55.26
11912;BME280;6016;41.928;25.556;2023-07-31T02:46:53;98433.59;;;25.78;54.94
11912;BME280;6016;41.928;25.556;2023-07-31T02:49:20;98438.50;;;25.81;54.76
11912;BME280;6016;41.928;25.556;2023-07-31T02:51:47;98446.09;;;25.84;54.95
11912;BME280;6016;41.928;25.556;2023-07-31T02:54:15;98446.66;;;25.86;54.76
11912;BME280;6016;41.928;25.556;2023-07-31T02:56:42;98427.34;;;25.72;54.47
11912;BME280;6016;41.928;25.556;2023-07-31T02:59:09;98460.16;;;25.86;54.77
11912;BME280;6016;41.928;25.556;2023-07-31T03:01:35;98444.19;;;25.84;54.75
11912;BME280;6016;41.928;25.556;2023-07-31T03:04:02;98439.88;;;25.83;54.49
11912;BME280;6016;41.928;25.556;2023-07-31T03:06:29;98399.19;;;25.63;54.36
11912;BME280;6016;41.928;25.556;2023-07-31T03:08:56;98441.22;;;25.81;54.46
11912;BME280;6016;41.928;25.556;2023-07-31T03:11:24;98442.28;;;25.80;54.18
11912;BME280;6016;41.928;25.556;2023-07-31T03:13:51;98399.88;;;25.53;54.10
11912;BME280;6016;41.928;25.556;2023-07-31T03:16:19;98446.84;;;25.74;54.01
11912;BME280;6016;41.928;25.556;2023-07-31T03:18:46;98444.38;;;25.73;54.49
11912;BME280;6016;41.928;25.556;2023-07-31T03:21:13;98444.91;;;25.69;54.74
11912;BME280;6016;41.928;25.556;2023-07-31T03:23:39;98416.91;;;25.53;54.53
11912;BME280;6016;41.928;25.556;2023-07-31T03:26:07;98444.59;;;25.66;54.50
11912;BME280;6016;41.928;25.556;2023-07-31T03:28:36;98402.09;;;25.34;54.61
11912;BME280;6016;41.928;25.556;2023-07-31T03:31:02;98458.09;;;25.66;55.12
11912;BME280;6016;41.928;25.556;2023-07-31T03:33:29;98388.13;;;25.14;54.48
11912;BME280;6016;41.928;25.556;2023-07-31T03:35:56;98457.44;;;25.53;54.92
11912;BME280;6016;41.928;25.556;2023-07-31T03:38:23;98464.69;;;25.53;54.49
11912;BME280;6016;41.928;25.556;2023-07-31T03:40:50;98470.38;;;25.51;54.84
11912;BME280;6016;41.928;25.556;2023-07-31T03:43:16;98462.50;;;25.50;54.39
11912;BME280;6016;41.928;25.556;2023-07-31T03:45:44;98438.66;;;25.19;54.66
11912;BME280;6016;41.928;25.556;2023-07-31T03:48:11;98422.53;;;25.24;54.43
11912;BME280;6016;41.928;25.556;2023-07-31T03:50:38;98452.78;;;25.49;54.78
11912;BME280;6016;41.928;25.556;2023-07-31T03:53:04;98398.63;;;25.11;54.48
11912;BME280;6016;41.928;25.556;2023-07-31T03:55:31;98460.13;;;25.53;54.84
11912;BME280;6016;41.928;25.556;2023-07-31T03:57:58;98453.81;;;25.48;54.85
11912;BME280;6016;41.928;25.556;2023-07-31T04:00:26;98461.59;;;25.44;54.38
11912;BME280;6016;41.928;25.556;2023-07-31T04:02:54;98444.81;;;25.37;55.04
11912;BME280;6016;41.928;25.556;2023-07-31T04:05:21;98453.34;;;25.51;55.21
11912;BME280;6016;41.928;25.556;2023-07-31T04:07:47;98441.97;;;25.49;55.46
11912;BME280;6016;41.928;25.556;2023-07-31T04:10:14;98233.50;;;24.14;54.86
11912;BME280;6016;41.928;25.556;2023-07-31T04:12:41;98322.91;;;24.73;55.13
11912;BME280;6016;41.928;25.556;2023-07-31T04:15:09;98407.97;;;25.25;54.89
11912;BME280;6016;41.928;25.556;2023-07-31T04:17:35;98429.09;;;25.34;55.61
11912;BME280;6016;41.928;25.556;2023-07-31T04:20:05;98451.63;;;25.45;55.82
11912;BME280;6016;41.928;25.556;2023-07-31T04:22:32;98464.22;;;25.56;55.74
11912;BME280;6016;41.928;25.556;2023-07-31T04:24:59;98401.63;;;25.14;55.71
11912;BME280;6016;41.928;25.556;2023-07-31T04:27:25;98451.72;;;25.27;55.49
11912;BME280;6016;41.928;25.556;2023-07-31T04:29:52;98468.28;;;25.59;55.40
11912;BME280;6016;41.928;25.556;2023-07-31T04:32:19;98475.81;;;25.56;55.71
11912;BME280;6016;41.928;25.556;2023-07-31T04:34:46;98465.03;;;25.34;56.36
11912;BME280;6016;41.928;25.556;2023-07-31T04:37:14;98473.88;;;25.52;55.60
11912;BME280;6016;41.928;25.556;2023-07-31T04:39:41;98481.22;;;25.56;55.40
11912;BME280;6016;41.928;25.556;2023-07-31T04:42:08;98388.84;;;25.05;54.95
11912;BME280;6016;41.928;25.556;2023-07-31T04:44:35;98475.81;;;25.56;54.96
11912;BME280;6016;41.928;25.556;2023-07-31T04:47:02;98485.72;;;25.73;55.21
11912;BME280;6016;41.928;25.556;2023-07-31T04:49:29;98496.03;;;25.76;54.88
11912;BME280;6016;41.928;25.556;2023-07-31T04:51:56;98339.34;;;24.71;54.74
11912;BME280;6016;41.928;25.556;2023-07-31T04:54:24;98450.31;;;25.47;54.87
11912;BME280;6016;41.928;25.556;2023-07-31T04:56:51;98502.53;;;25.80;54.71
11912;BME280;6016;41.928;25.556;2023-07-31T04:59:18;98431.31;;;25.37;54.33
11912;BME280;6016;41.928;25.556;2023-07-31T05:01:45;98509.56;;;25.81;54.18
11912;BME280;6016;41.928;25.556;2023-07-31T05:04:12;98505.97;;;25.70;54.61
11912;BME280;6016;41.928;25.556;2023-07-31T05:06:39;98430.56;;;25.19;54.59
11912;BME280;6016;41.928;25.556;2023-07-31T05:09:06;98508.66;;;25.70;54.56
11912;BME280;6016;41.928;25.556;2023-07-31T05:11:36;98524.88;;;25.70;54.41
11912;BME280;6016;41.928;25.556;2023-07-31T05:14:02;98523.25;;;25.69;54.44
11912;BME280;6016;41.928;25.556;2023-07-31T05:16:29;98490.91;;;25.52;54.28
11912;BME280;6016;41.928;25.556;2023-07-31T05:18:56;98531.06;;;25.71;54.06
11912;BME280;6016;41.928;25.556;2023-07-31T05:21:23;98404.66;;;24.73;53.52
11912;BME280;6016;41.928;25.556;2023-07-31T05:23:50;98574.69;;;25.80;54.07
11912;BME280;6016;41.928;25.556;2023-07-31T05:26:17;98574.88;;;25.73;53.89
11912;BME280;6016;41.928;25.556;2023-07-31T05:28:45;98579.69;;;25.71;54.25
11912;BME280;6016;41.928;25.556;2023-07-31T05:31:12;98578.94;;;25.76;54.29
11912;BME280;6016;41.928;25.556;2023-07-31T05:33:39;98580.47;;;25.66;55.48
11912;BME280;6016;41.928;25.556;2023-07-31T05:36:05;98592.28;;;25.60;56.63
11912;BME280;6016;41.928;25.556;2023-07-31T05:38:32;98566.22;;;25.32;58.19
11912;BME280;6016;41.928;25.556;2023-07-31T05:40:59;98522.19;;;24.86;58.39
11912;BME280;6016;41.928;25.556;2023-07-31T05:43:26;98597.38;;;25.39;58.44
11912;BME280;6016;41.928;25.556;2023-07-31T05:45:54;98606.97;;;25.47;57.45
11912;BME280;6016;41.928;25.556;2023-07-31T05:48:21;98600.94;;;25.62;58.03
11912;BME280;6016;41.928;25.556;2023-07-31T05:50:48;98607.78;;;25.70;57.19
11912;BME280;6016;41.928;25.556;2023-07-31T05:53:14;98611.06;;;25.72;57.35
11912;BME280;6016;41.928;25.556;2023-07-31T05:55:41;98423.91;;;24.43;58.86
11912;BME280;6016;41.928;25.556;2023-07-31T05:58:08;98600.66;;;25.41;59.65
11912;BME280;6016;41.928;25.556;2023-07-31T06:00:35;98603.78;;;25.50;59.77
11912;BME280;6016;41.928;25.556;2023-07-31T06:03:03;98603.44;;;25.47;59.90
11912;BME280;6016;41.928;25.556;2023-07-31T06:05:30;98611.75;;;25.45;60.14
11912;BME280;6016;41.928;25.556;2023-07-31T06:07:57;98523.63;;;24.94;60.57
11912;BME280;6016;41.928;25.556;2023-07-31T06:10:24;98608.00;;;25.46;62.00
11912;BME280;6016;41.928;25.556;2023-07-31T06:12:51;98617.75;;;25.47;62.31
11912;BME280;6016;41.928;25.556;2023-07-31T06:15:18;98624.19;;;25.46;63.37
11912;BME280;6016;41.928;25.556;2023-07-31T06:17:45;98621.06;;;25.32;64.97
11912;BME280;6016;41.928;25.556;2023-07-31T06:20:13;98568.44;;;24.95;65.46
11912;BME280;6016;41.928;25.556;2023-07-31T06:22:40;98586.69;;;25.05;68.05
11912;BME280;6016;41.928;25.556;2023-07-31T06:25:07;98624.34;;;25.17;66.50
11912;BME280;6016;41.928;25.556;2023-07-31T06:27:34;98629.19;;;25.15;67.50
11912;BME280;6016;41.928;25.556;2023-07-31T06:30:01;98535.69;;;24.52;67.03
11912;BME280;6016;41.928;25.556;2023-07-31T06:32:28;98633.34;;;25.06;67.09
11912;BME280;6016;41.928;25.556;2023-07-31T06:34:55;98624.63;;;25.16;69.28
11912;BME280;6016;41.928;25.556;2023-07-31T06:37:23;98623.56;;;25.17;69.44
11912;BME280;6016;41.928;25.556;2023-07-31T06:39:50;98618.16;;;25.17;70.68
11912;BME280;6016;41.928;25.556;2023-07-31T06:42:17;98614.56;;;25.11;70.32
11912;BME280;6016;41.928;25.556;2023-07-31T06:44:43;98609.63;;;25.08;70.45
11912;BME280;6016;41.928;25.556;2023-07-31T06:47:10;98601.25;;;25.04;70.24
11912;BME280;6016;41.928;25.556;2023-07-31T06:49:37;98602.06;;;24.88;69.39
11912;BME280;6016;41.928;25.556;2023-07-31T06:52:04;98460.44;;;24.16;70.89
11912;BME280;6016;41.928;25.556;2023-07-31T06:54:32;98613.31;;;25.19;72.62
11912;BME280;6016;41.928;25.556;2023-07-31T06:56:59;98614.63;;;25.16;71.36
11912;BME280;6016;41.928;25.556;2023-07-31T06:59:26;98615.19;;;25.18;70.98
11912;BME280;6016;41.928;25.556;2023-07-31T07:01:53;98614.63;;;25.16;71.10
11912;BME280;6016;41.928;25.556;2023-07-31T07:04:19;98611.34;;;25.14;71.78
11912;BME280;6016;41.928;25.556;2023-07-31T07:06:47;98616.44;;;25.10;70.81
11912;BME280;6016;41.928;25.556;2023-07-31T07:09:13;98614.56;;;25.11;72.24
11912;BME280;6016;41.928;25.556;2023-07-31T07:11:41;98618.31;;;25.10;71.62
11912;BME280;6016;41.928;25.556;2023-07-31T07:14:08;98616.66;;;25.09;72.00
11912;BME280;6016;41.928;25.556;2023-07-31T07:16:35;98459.94;;;24.02;70.66
11912;BME280;6016;41.928;25.556;2023-07-31T07:19:02;98617.44;;;25.04;72.01
11912;BME280;6016;41.928;25.556;2023-07-31T07:21:29;98619.88;;;25.06;71.60
11912;BME280;6016;41.928;25.556;2023-07-31T07:23:56;98583.16;;;24.88;72.67
11912;BME280;6016;41.928;25.556;2023-07-31T07:26:22;98622.06;;;25.09;71.65
11912;BME280;6016;41.928;25.556;2023-07-31T07:28:50;98624.53;;;25.10;70.89
11912;BME280;6016;41.928;25.556;2023-07-31T07:31:17;98623.56;;;25.17;72.02
11912;BME280;6016;41.928;25.556;2023-07-31T07:33:44;98491.16;;;24.33;70.98
11912;BME280;6016;41.928;25.556;2023-07-31T07:36:11;98623.63;;;25.22;70.18
11912;BME280;6016;41.928;25.556;2023-07-31T07:38:38;98621.81;;;25.27;69.82
11912;BME280;6016;41.928;25.556;2023-07-31T07:41:06;98618.88;;;25.29;69.96
11912;BME280;6016;41.928;25.556;2023-07-31T07:43:33;98621.63;;;25.34;69.87
11912;BME280;6016;41.928;25.556;2023-07-31T07:46:01;98572.91;;;25.07;69.93
11912;BME280;6016;41.928;25.556;2023-07-31T07:48:28;98620.47;;;25.47;70.02
11912;BME280;6016;41.928;25.556;2023-07-31T07:50:54;98617.34;;;25.55;70.24
11912;BME280;6016;41.928;25.556;2023-07-31T07:53:21;98620.41;;;25.64;71.16
11912;BME280;6016;41.928;25.556;2023-07-31T07:55:48;98621.28;;;25.70;71.24
11912;BME280;6016;41.928;25.556;2023-07-31T07:58:15;98621.28;;;25.70;70.75
11912;BME280;6016;41.928;25.556;2023-07-31T08:00:41;98620.22;;;25.71;69.01
11912;BME280;6016;41.928;25.556;2023-07-31T08:03:09;98614.34;;;25.74;68.92
11912;BME280;6016;41.928;25.556;2023-07-31T08:05:36;98602.47;;;25.75;71.81
11912;BME280;6016;41.928;25.556;2023-07-31T08:08:03;98610.28;;;25.77;72.19
11912;BME280;6016;41.928;25.556;2023-07-31T08:10:30;98577.69;;;25.61;70.73
11912;BME280;6016;41.928;25.556;2023-07-31T08:12:57;98604.47;;;25.85;69.18
11912;BME280;6016;41.928;25.556;2023-07-31T08:15:24;98600.50;;;25.93;71.49
11912;BME280;6016;41.928;25.556;2023-07-31T08:17:50;98610.31;;;25.99;71.85
11912;BME280;6016;41.928;25.556;2023-07-31T08:20:19;98607.59;;;25.99;70.38
11912;BME280;6016;41.928;25.556;2023-07-31T08:22:46;98611.41;;;26.03;71.66
11912;BME280;6016;41.928;25.556;2023-07-31T08:25:13;98616.38;;;26.11;70.54
11912;BME280;6016;41.928;25.556;2023-07-31T08:27:43;98599.72;;;25.97;71.31
11912;BME280;6016;41.928;25.556;2023-07-31T08:30:11;98601.47;;;26.09;69.44
11912;BME280;6016;41.928;25.556;2023-07-31T08:32:38;98617.66;;;26.31;68.49
11912;BME280;6016;41.928;25.556;2023-07-31T08:35:05;98622.34;;;26.41;70.22
11912;BME280;6016;41.928;25.556;2023-07-31T08:37:33;98617.91;;;26.57;70.54
11912;BME280;6016;41.928;25.556;2023-07-31T08:40:00;98575.59;;;26.46;67.39
11912;BME280;6016;41.928;25.556;2023-07-31T08:42:27;98501.97;;;26.06;67.95
11912;BME280;6016;41.928;25.556;2023-07-31T08:44:55;98565.09;;;26.49;67.76
11912;BME280;6016;41.928;25.556;2023-07-31T08:47:23;98620.78;;;26.78;68.08
11912;BME280;6016;41.928;25.556;2023-07-31T08:49:51;98594.28;;;26.80;67.66
11912;BME280;6016;41.928;25.556;2023-07-31T08:52:19;98618.44;;;26.87;67.11
11912;BME280;6016;41.928;25.556;2023-07-31T08:54:47;98601.88;;;26.83;64.96
11912;BME280;6016;41.928;25.556;2023-07-31T08:57:14;98630.50;;;27.06;64.82
11912;BME280;6016;41.928;25.556;2023-07-31T08:59:43;98595.25;;;27.01;67.59
11912;BME280;6016;41.928;25.556;2023-07-31T09:02:11;98619.22;;;27.20;66.23
11912;BME280;6016;41.928;25.556;2023-07-31T09:04:39;98577.88;;;26.92;67.57
11912;BME280;6016;41.928;25.556;2023-07-31T09:07:07;98616.84;;;27.34;65.47
11912;BME280;6016;41.928;25.556;2023-07-31T09:09:34;98548.97;;;27.03;64.42
11912;BME280;6016;41.928;25.556;2023-07-31T09:12:03;98618.63;;;27.56;65.55
11912;BME280;6016;41.928;25.556;2023-07-31T09:14:31;98613.78;;;27.68;65.32
11912;BME280;6016;41.928;25.556;2023-07-31T09:16:58;98579.25;;;27.48;65.60
11912;BME280;6016;41.928;25.556;2023-07-31T09:19:27;98583.44;;;27.71;66.83
11912;BME280;6016;41.928;25.556;2023-07-31T09:21:54;98614.13;;;27.87;65.54
11912;BME280;6016;41.928;25.556;2023-07-31T09:24:27;98616.78;;;27.77;63.17
11912;BME280;6016;41.928;25.556;2023-07-31T09:26:55;98544.28;;;27.41;64.30
11912;BME280;6016;41.928;25.556;2023-07-31T09:29:24;98544.63;;;27.55;63.67
11912;BME280;6016;41.928;25.556;2023-07-31T09:31:53;98611.19;;;28.04;62.71
11912;BME280;6016;41.928;25.556;2023-07-31T09:34:20;98560.69;;;27.83;62.98
11912;BME280;6016;41.928;25.556;2023-07-31T09:36:54;98572.94;;;28.06;63.72
11912;BME280;6016;41.928;25.556;2023-07-31T09:39:22;98600.69;;;28.39;64.26
11912;BME280;6016;41.928;25.556;2023-07-31T09:41:54;98605.56;;;28.42;62.31
11912;BME280;6016;41.928;25.556;2023-07-31T09:44:21;98594.72;;;28.42;61.24
11912;BME280;6016;41.928;25.556;2023-07-31T09:46:49;98600.69;;;28.55;62.36
11912;BME280;6016;41.928;25.556;2023-07-31T09:49:16;98605.88;;;28.67;62.46
11912;BME280;6016;41.928;25.556;2023-07-31T09:51:43;98594.47;;;28.80;61.51
11912;BME280;6016;41.928;25.556;2023-07-31T09:54:10;98549.69;;;28.31;59.13
11912;BME280;6016;41.928;25.556;2023-07-31T09:56:41;98589.59;;;28.67;59.40
11912;BME280;6016;41.928;25.556;2023-07-31T09:59:11;98597.44;;;28.94;60.17
11912;BME280;6016;41.928;25.556;2023-07-31T10:01:39;98568.41;;;28.84;59.11
11912;BME280;6016;41.928;25.556;2023-07-31T10:04:08;98613.47;;;29.06;59.52
11912;BME280;6016;41.928;25.556;2023-07-31T10:06:36;98606.13;;;29.12;57.94
11912;BME280;6016;41.928;25.556;2023-07-31T10:09:05;98600.94;;;29.15;57.92
11912;BME280;6016;41.928;25.556;2023-07-31T10:11:34;98465.88;;;28.29;58.46
11912;BME280;6016;41.928;25.556;2023-07-31T10:14:04;98597.13;;;29.22;57.95
11912;BME280;6016;41.928;25.556;2023-07-31T10:16:32;98578.66;;;29.13;57.20
11912;BME280;6016;41.928;25.556;2023-07-31T10:18:59;98547.50;;;28.95;57.86
11912;BME280;6016;41.928;25.556;2023-07-31T10:21:28;98540.69;;;28.98;58.35
11912;BME280;6016;41.928;25.556;2023-07-31T10:23:55;98553.97;;;29.10;58.03
11912;BME280;6016;41.928;25.556;2023-07-31T10:26:23;98533.63;;;28.97;57.80
11912;BME280;6016;41.928;25.556;2023-07-31T10:28:52;98591.91;;;29.41;57.24
11912;BME280;6016;41.928;25.556;2023-07-31T10:31:20;98580.22;;;29.40;57.00
11912;BME280;6016;41.928;25.556;2023-07-31T10:33:48;98578.31;;;29.41;56.13
11912;BME280;6016;41.928;25.556;2023-07-31T10:36:18;98575.94;;;29.18;58.28
11912;BME280;6016;41.928;25.556;2023-07-31T10:38:48;98548.03;;;28.97;55.21
11912;BME280;6016;41.928;25.556;2023-07-31T10:41:15;98566.75;;;29.04;57.44
11912;BME280;6016;41.928;25.556;2023-07-31T10:43:42;98533.13;;;28.84;57.70
11912;BME280;6016;41.928;25.556;2023-07-31T10:46:11;98550.75;;;28.97;57.27
11912;BME280;6016;41.928;25.556;2023-07-31T10:48:39;98521.69;;;29.03;56.16
11912;BME280;6016;41.928;25.556;2023-07-31T10:51:08;98558.03;;;29.07;55.84
11912;BME280;6016;41.928;25.556;2023-07-31T10:53:36;98552.13;;;28.84;57.61
11912;BME280;6016;41.928;25.556;2023-07-31T10:56:05;98539.06;;;28.97;58.31
11912;BME280;6016;41.928;25.556;2023-07-31T10:58:32;98537.13;;;29.13;55.60
11912;BME280;6016;41.928;25.556;2023-07-31T11:01:01;98535.78;;;29.05;57.48
11912;BME280;6016;41.928;25.556;2023-07-31T11:03:41;98532.47;;;29.18;58.81
11912;BME280;6016;41.928;25.556;2023-07-31T11:06:09;98511.31;;;29.10;57.28
11912;BME280;6016;41.928;25.556;2023-07-31T11:08:41;98502.63;;;29.08;55.55
11912;BME280;6016;41.928;25.556;2023-07-31T11:11:10;98527.53;;;29.31;57.27
11912;BME280;6016;41.928;25.556;2023-07-31T11:13:43;98493.91;;;29.16;54.69
11912;BME280;6016;41.928;25.556;2023-07-31T11:16:11;98524.25;;;29.44;56.10
11912;BME280;6016;41.928;25.556;2023-07-31T11:18:39;98522.59;;;29.54;55.78
11912;BME280;6016;41.928;25.556;2023-07-31T11:21:07;98359.16;;;28.60;55.70
11912;BME280;6016;41.928;25.556;2023-07-31T11:23:36;98516.75;;;29.76;54.81
11912;BME280;6016;41.928;25.556;2023-07-31T11:26:05;98497.50;;;29.62;53.87
11912;BME280;6016;41.928;25.556;2023-07-31T11:28:34;98482.91;;;29.53;54.73
11912;BME280;6016;41.928;25.556;2023-07-31T11:31:02;98506.59;;;29.87;54.30
11912;BME280;6016;41.928;25.556;2023-07-31T11:33:29;98458.59;;;29.72;52.30
11912;BME280;6016;41.928;25.556;2023-07-31T11:35:56;98499.00;;;29.84;54.08
11912;BME280;6016;41.928;25.556;2023-07-31T11:38:24;98438.22;;;29.64;53.05
11912;BME280;6016;41.928;25.556;2023-07-31T11:40:52;98486.09;;;30.05;52.54
11912;BME280;6016;41.928;25.556;2023-07-31T11:43:20;98481.97;;;30.13;53.28
11912;BME280;6016;41.928;25.556;2023-07-31T11:45:49;98481.09;;;30.17;51.90
11912;BME280;6016;41.928;25.556;2023-07-31T11:48:20;98473.19;;;30.21;52.59
11912;BME280;6016;41.928;25.556;2023-07-31T11:50:48;98476.69;;;30.27;52.55
11912;BME280;6016;41.928;25.556;2023-07-31T11:53:17;98485.13;;;30.25;53.98
11912;BME280;6016;41.928;25.556;2023-07-31T11:55:45;98464.88;;;30.37;53.02
11912;BME280;6016;41.928;25.556;2023-07-31T11:58:13;98469.03;;;30.29;51.82
11912;BME280;6016;41.928;25.556;2023-07-31T12:00:41;98469.53;;;30.36;49.77
11912;BME280;6016;41.928;25.556;2023-07-31T12:03:10;98449.75;;;30.25;49.51
11912;BME280;6016;41.928;25.556;2023-07-31T12:05:37;98457.81;;;30.36;49.97
11912;BME280;6016;41.928;25.556;2023-07-31T12:08:09;98458.41;;;30.32;51.71
11912;BME280;6016;41.928;25.556;2023-07-31T12:10:36;98423.69;;;30.19;51.20
11912;BME280;6016;41.928;25.556;2023-07-31T12:13:04;98448.38;;;30.52;50.63
11912;BME280;6016;41.928;25.556;2023-07-31T12:15:37;98452.41;;;30.60;49.00
11912;BME280;6016;41.928;25.556;2023-07-31T12:18:06;98452.19;;;30.56;50.57
11912;BME280;6016;41.928;25.556;2023-07-31T12:20:35;98398.19;;;30.39;48.86
11912;BME280;6016;41.928;25.556;2023-07-31T12:23:02;98430.06;;;30.63;46.74
11912;BME280;6016;41.928;25.556;2023-07-31T12:25:32;98434.16;;;30.60;47.24
11912;BME280;6016;41.928;25.556;2023-07-31T12:28:06;98426.78;;;30.66;49.92
11912;BME280;6016;41.928;25.556;2023-07-31T12:30:38;98419.59;;;30.76;49.52
11912;BME280;6016;41.928;25.556;2023-07-31T12:33:06;98403.09;;;30.67;50.25
11912;BME280;6016;41.928;25.556;2023-07-31T12:35:41;98419.50;;;30.81;50.16
11912;BME280;6016;41.928;25.556;2023-07-31T12:38:08;98418.56;;;30.91;50.37
11912;BME280;6016;41.928;25.556;2023-07-31T12:40:37;98421.66;;;30.84;47.12
11912;BME280;6016;41.928;25.556;2023-07-31T12:43:04;98343.94;;;29.94;48.94
11912;BME280;6016;41.928;25.556;2023-07-31T12:45:31;98362.47;;;29.87;49.16
11912;BME280;6016;41.928;25.556;2023-07-31T12:47:58;98397.09;;;30.11;49.33
11912;BME280;6016;41.928;25.556;2023-07-31T12:50:25;98416.97;;;30.11;49.97
11912;BME280;6016;41.928;25.556;2023-07-31T12:52:53;98419.47;;;30.02;51.28
11912;BME280;6016;41.928;25.556;2023-07-31T12:55:21;98405.00;;;29.78;51.72
11912;BME280;6016;41.928;25.556;2023-07-31T12:57:48;98415.09;;;29.72;51.20
11912;BME280;6016;41.928;25.556;2023-07-31T13:00:15;98426.44;;;29.79;51.42
11912;BME280;6016;41.928;25.556;2023-07-31T13:02:42;98399.38;;;29.64;51.38
11912;BME280;6016;41.928;25.556;2023-07-31T13:05:09;98407.16;;;29.75;51.28
11912;BME280;6016;41.928;25.556;2023-07-31T13:07:36;98407.47;;;29.74;52.25